sensor_id;sensor_type;location;lat;lon;timestamp;P1;durP1;ratioP1;P2;durP2;ratioP2
51754;SDS011;37829;50.370;30.428;2022-11-15T00:00:42;22.30;;;13.48;;
51754;SDS011;37829;50.370;30.428;2022-11-15T00:01:43;23.30;;;13.77;;
51754;SDS011;37829;50.370;30.428;2022-11-15T00:02:44;24.58;;;14.18;;
51754;SDS011;37829;50.370;30.428;2022-11-15T00:03:45;23.48;;;13.55;;
51754;SDS011;37829;50.370;30.428;2022-11-15T00:04:46;24.43;;;14.07;;
51754;SDS011;37829;50.370;30.428;2022-11-15T00:05:47;28.80;;;14.40;;
51754;SDS011;37829;50.370;30.428;2022-11-15T00:06:48;21.63;;;13.45;;
51754;SDS011;37829;50.370;30.428;2022-11-15T00:07:49;19.15;;;13.07;;
51754;SDS011;37829;50.370;30.428;2022-11-15T00:08:58;22.92;;;13.85;;
51754;SDS011;37829;50.370;30.428;2022-11-15T00:09:59;22.73;;;13.70;;
51754;SDS011;37829;50.370;30.428;2022-11-15T00:11:01;24.38;;;14.93;;
51754;SDS011;37829;50.370;30.428;2022-11-15T00:12:03;18.13;;;12.57;;
51754;SDS011;37829;50.370;30.428;2022-11-15T00:13:05;21.25;;;13.20;;
51754;SDS011;37829;50.370;30.428;2022-11-15T00:14:06;19.02;;;13.13;;
51754;SDS011;37829;50.370;30.428;2022-11-15T00:15:07;20.80;;;13.77;;
51754;SDS011;37829;50.370;30.428;2022-11-15T00:16:09;22.88;;;13.32;;
51754;SDS011;37829;50.370;30.428;2022-11-15T00:17:10;22.65;;;12.88;;
51754;SDS011;37829;50.370;30.428;2022-11-15T00:18:11;20.30;;;12.75;;
51754;SDS011;37829;50.370;30.428;2022-11-15T00:19:13;22.88;;;13.70;;
51754;SDS011;37829;50.370;30.428;2022-11-15T00:20:14;22.05;;;13.05;;
51754;SDS011;37829;50.370;30.428;2022-11-15T00:21:15;17.73;;;11.95;;
51754;SDS011;37829;50.370;30.428;2022-11-15T00:22:16;18.50;;;12.02;;
51754;SDS011;37829;50.370;30.428;2022-11-15T00:23:17;19.77;;;12.97;;
51754;SDS011;37829;50.370;30.428;2022-11-15T00:24:18;21.42;;;11.68;;
51754;SDS011;37829;50.370;30.428;2022-11-15T00:25:19;22.70;;;12.95;;
51754;SDS011;37829;50.370;30.428;2022-11-15T00:26:20;19.52;;;12.43;;
51754;SDS011;37829;50.370;30.428;2022-11-15T00:27:21;18.88;;;11.13;;
51754;SDS011;37829;50.370;30.428;2022-11-15T00:28:23;15.75;;;11.15;;
51754;SDS011;37829;50.370;30.428;2022-11-15T00:29:24;18.75;;;12.80;;
51754;SDS011;37829;50.370;30.428;2022-11-15T00:30:25;18.02;;;11.57;;
51754;SDS011;37829;50.370;30.428;2022-11-15T00:31:26;18.52;;;12.68;;
51754;SDS011;37829;50.370;30.428;2022-11-15T00:32:30;21.30;;;13.35;;
51754;SDS011;37829;50.370;30.428;2022-11-15T00:33:31;20.10;;;12.68;;
51754;SDS011;37829;50.370;30.428;2022-11-15T00:35:34;20.13;;;12.40;;
51754;SDS011;37829;50.370;30.428;2022-11-15T00:36:35;18.25;;;12.07;;
51754;SDS011;37829;50.370;30.428;2022-11-15T00:37:36;28.05;;;12.50;;
51754;SDS011;37829;50.370;30.428;2022-11-15T00:38:38;17.75;;;12.15;;
51754;SDS011;37829;50.370;30.428;2022-11-15T00:39:40;17.10;;;11.13;;
51754;SDS011;37829;50.370;30.428;2022-11-15T00:40:41;18.40;;;13.40;;
51754;SDS011;37829;50.370;30.428;2022-11-15T00:41:42;15.33;;;10.43;;
51754;SDS011;37829;50.370;30.428;2022-11-15T00:42:43;20.65;;;12.32;;
51754;SDS011;37829;50.370;30.428;2022-11-15T00:43:44;19.25;;;12.13;;
51754;SDS011;37829;50.370;30.428;2022-11-15T00:44:45;17.67;;;12.45;;
51754;SDS011;37829;50.370;30.428;2022-11-15T00:45:46;17.33;;;11.20;;
51754;SDS011;37829;50.370;30.428;2022-11-15T00:46:47;15.02;;;10.57;;
51754;SDS011;37829;50.370;30.428;2022-11-15T00:47:48;19.95;;;10.98;;
51754;SDS011;37829;50.370;30.428;2022-11-15T00:48:50;16.55;;;11.30;;
51754;SDS011;37829;50.370;30.428;2022-11-15T00:49:50;15.07;;;10.67;;
51754;SDS011;37829;50.370;30.428;2022-11-15T00:50:52;17.67;;;11.27;;
51754;SDS011;37829;50.370;30.428;2022-11-15T00:51:52;18.33;;;11.65;;
51754;SDS011;37829;50.370;30.428;2022-11-15T00:52:54;17.83;;;10.98;;
51754;SDS011;37829;50.370;30.428;2022-11-15T00:53:54;18.40;;;12.17;;
51754;SDS011;37829;50.370;30.428;2022-11-15T00:54:56;15.90;;;11.13;;
51754;SDS011;37829;50.370;30.428;2022-11-15T00:55:57;16.52;;;11.52;;
51754;SDS011;37829;50.370;30.428;2022-11-15T00:56:58;16.30;;;10.77;;
51754;SDS011;37829;50.370;30.428;2022-11-15T00:57:59;19.35;;;12.32;;
51754;SDS011;37829;50.370;30.428;2022-11-15T00:59:01;18.55;;;12.32;;
51754;SDS011;37829;50.370;30.428;2022-11-15T01:00:02;16.25;;;11.65;;
51754;SDS011;37829;50.370;30.428;2022-11-15T01:01:07;18.98;;;11.35;;
51754;SDS011;37829;50.370;30.428;2022-11-15T01:02:08;16.67;;;10.82;;
51754;SDS011;37829;50.370;30.428;2022-11-15T01:03:09;20.15;;;11.50;;
51754;SDS011;37829;50.370;30.428;2022-11-15T01:04:10;17.75;;;11.43;;
51754;SDS011;37829;50.370;30.428;2022-11-15T01:05:12;18.40;;;10.88;;
51754;SDS011;37829;50.370;30.428;2022-11-15T01:06:13;17.30;;;11.90;;
51754;SDS011;37829;50.370;30.428;2022-11-15T01:07:14;16.95;;;11.00;;
51754;SDS011;37829;50.370;30.428;2022-11-15T01:08:15;21.80;;;12.93;;
51754;SDS011;37829;50.370;30.428;2022-11-15T01:10:18;17.67;;;11.48;;
51754;SDS011;37829;50.370;30.428;2022-11-15T01:11:19;17.65;;;11.80;;
51754;SDS011;37829;50.370;30.428;2022-11-15T01:12:20;15.60;;;11.30;;
51754;SDS011;37829;50.370;30.428;2022-11-15T01:13:21;21.02;;;11.40;;
51754;SDS011;37829;50.370;30.428;2022-11-15T01:14:23;19.33;;;11.38;;
51754;SDS011;37829;50.370;30.428;2022-11-15T01:15:26;17.30;;;11.75;;
51754;SDS011;37829;50.370;30.428;2022-11-15T01:16:26;18.20;;;11.63;;
51754;SDS011;37829;50.370;30.428;2022-11-15T01:17:28;17.38;;;10.18;;
51754;SDS011;37829;50.370;30.428;2022-11-15T01:18:29;16.00;;;10.47;;
51754;SDS011;37829;50.370;30.428;2022-11-15T01:19:30;17.63;;;11.85;;
51754;SDS011;37829;50.370;30.428;2022-11-15T01:20:31;18.38;;;12.10;;
51754;SDS011;37829;50.370;30.428;2022-11-15T01:21:32;19.15;;;11.55;;
51754;SDS011;37829;50.370;30.428;2022-11-15T01:22:33;17.98;;;9.10;;
51754;SDS011;37829;50.370;30.428;2022-11-15T01:23:34;16.65;;;11.43;;
51754;SDS011;37829;50.370;30.428;2022-11-15T01:24:36;18.20;;;11.32;;
51754;SDS011;37829;50.370;30.428;2022-11-15T01:25:37;17.42;;;11.10;;
51754;SDS011;37829;50.370;30.428;2022-11-15T01:26:38;15.67;;;11.07;;
51754;SDS011;37829;50.370;30.428;2022-11-15T01:27:39;15.82;;;11.05;;
51754;SDS011;37829;50.370;30.428;2022-11-15T01:28:40;16.80;;;10.40;;
51754;SDS011;37829;50.370;30.428;2022-11-15T01:29:42;16.05;;;9.77;;
51754;SDS011;37829;50.370;30.428;2022-11-15T01:30:43;16.55;;;10.02;;
51754;SDS011;37829;50.370;30.428;2022-11-15T01:31:45;15.45;;;10.77;;
51754;SDS011;37829;50.370;30.428;2022-11-15T01:32:46;16.13;;;10.85;;
51754;SDS011;37829;50.370;30.428;2022-11-15T01:33:47;13.65;;;10.80;;
51754;SDS011;37829;50.370;30.428;2022-11-15T01:34:48;18.80;;;10.38;;
51754;SDS011;37829;50.370;30.428;2022-11-15T01:35:49;17.48;;;11.05;;
51754;SDS011;37829;50.370;30.428;2022-11-15T01:36:50;19.50;;;10.70;;
51754;SDS011;37829;50.370;30.428;2022-11-15T01:37:52;17.15;;;10.18;;
51754;SDS011;37829;50.370;30.428;2022-11-15T01:38:53;15.10;;;8.77;;
51754;SDS011;37829;50.370;30.428;2022-11-15T01:39:54;16.05;;;10.32;;
51754;SDS011;37829;50.370;30.428;2022-11-15T01:40:55;16.02;;;10.57;;
51754;SDS011;37829;50.370;30.428;2022-11-15T01:41:56;16.45;;;10.07;;
51754;SDS011;37829;50.370;30.428;2022-11-15T01:42:58;14.02;;;8.60;;
51754;SDS011;37829;50.370;30.428;2022-11-15T01:45:16;17.88;;;11.02;;
51754;SDS011;37829;50.370;30.428;2022-11-15T01:46:24;17.85;;;11.45;;
51754;SDS011;37829;50.370;30.428;2022-11-15T01:47:27;18.38;;;11.70;;
51754;SDS011;37829;50.370;30.428;2022-11-15T01:48:30;15.80;;;10.70;;
51754;SDS011;37829;50.370;30.428;2022-11-15T01:49:33;17.48;;;11.38;;
51754;SDS011;37829;50.370;30.428;2022-11-15T01:50:35;19.17;;;12.02;;
51754;SDS011;37829;50.370;30.428;2022-11-15T01:51:37;18.55;;;11.43;;
51754;SDS011;37829;50.370;30.428;2022-11-15T01:52:38;17.52;;;11.48;;
51754;SDS011;37829;50.370;30.428;2022-11-15T01:53:40;18.58;;;12.30;;
51754;SDS011;37829;50.370;30.428;2022-11-15T01:54:42;15.80;;;10.55;;
51754;SDS011;37829;50.370;30.428;2022-11-15T01:55:43;17.85;;;11.93;;
51754;SDS011;37829;50.370;30.428;2022-11-15T01:56:45;18.05;;;10.90;;
51754;SDS011;37829;50.370;30.428;2022-11-15T01:57:47;17.40;;;10.48;;
51754;SDS011;37829;50.370;30.428;2022-11-15T01:58:49;18.30;;;10.23;;
51754;SDS011;37829;50.370;30.428;2022-11-15T01:59:52;16.88;;;11.38;;
51754;SDS011;37829;50.370;30.428;2022-11-15T02:00:53;16.05;;;11.85;;
51754;SDS011;37829;50.370;30.428;2022-11-15T02:02:55;16.90;;;11.45;;
51754;SDS011;37829;50.370;30.428;2022-11-15T02:03:59;21.00;;;11.73;;
51754;SDS011;37829;50.370;30.428;2022-11-15T02:05:00;19.05;;;11.40;;
51754;SDS011;37829;50.370;30.428;2022-11-15T02:06:01;19.88;;;11.90;;
51754;SDS011;37829;50.370;30.428;2022-11-15T02:07:04;15.50;;;11.10;;
51754;SDS011;37829;50.370;30.428;2022-11-15T02:08:06;18.38;;;11.27;;
51754;SDS011;37829;50.370;30.428;2022-11-15T02:09:07;16.77;;;11.13;;
51754;SDS011;37829;50.370;30.428;2022-11-15T02:10:09;18.13;;;10.82;;
51754;SDS011;37829;50.370;30.428;2022-11-15T02:11:10;21.13;;;12.35;;
51754;SDS011;37829;50.370;30.428;2022-11-15T02:12:11;16.98;;;11.23;;
51754;SDS011;37829;50.370;30.428;2022-11-15T02:13:14;18.35;;;11.55;;
51754;SDS011;37829;50.370;30.428;2022-11-15T02:14:16;19.75;;;12.45;;
51754;SDS011;37829;50.370;30.428;2022-11-15T02:15:18;22.13;;;12.25;;
51754;SDS011;37829;50.370;30.428;2022-11-15T02:16:27;16.80;;;11.32;;
51754;SDS011;37829;50.370;30.428;2022-11-15T02:17:37;17.50;;;10.68;;
51754;SDS011;37829;50.370;30.428;2022-11-15T02:18:45;15.77;;;10.88;;
51754;SDS011;37829;50.370;30.428;2022-11-15T02:19:54;17.33;;;11.05;;
51754;SDS011;37829;50.370;30.428;2022-11-15T02:21:03;15.60;;;10.48;;
51754;SDS011;37829;50.370;30.428;2022-11-15T02:22:10;14.57;;;9.85;;
51754;SDS011;37829;50.370;30.428;2022-11-15T02:24:47;15.32;;;10.40;;
51754;SDS011;37829;50.370;30.428;2022-11-15T02:25:53;18.40;;;12.10;;
51754;SDS011;37829;50.370;30.428;2022-11-15T02:28:27;16.05;;;10.75;;
51754;SDS011;37829;50.370;30.428;2022-11-15T02:29:35;16.95;;;11.60;;
51754;SDS011;37829;50.370;30.428;2022-11-15T02:30:43;22.08;;;11.23;;
51754;SDS011;37829;50.370;30.428;2022-11-15T02:31:47;17.90;;;11.27;;
51754;SDS011;37829;50.370;30.428;2022-11-15T02:32:50;18.80;;;11.75;;
51754;SDS011;37829;50.370;30.428;2022-11-15T02:33:53;20.75;;;11.52;;
51754;SDS011;37829;50.370;30.428;2022-11-15T02:34:58;18.58;;;11.60;;
51754;SDS011;37829;50.370;30.428;2022-11-15T02:36:01;17.38;;;11.55;;
51754;SDS011;37829;50.370;30.428;2022-11-15T02:38:04;17.42;;;11.50;;
51754;SDS011;37829;50.370;30.428;2022-11-15T02:39:08;17.60;;;10.18;;
51754;SDS011;37829;50.370;30.428;2022-11-15T02:40:13;20.38;;;12.18;;
51754;SDS011;37829;50.370;30.428;2022-11-15T02:41:19;17.80;;;12.35;;
51754;SDS011;37829;50.370;30.428;2022-11-15T02:42:23;19.80;;;12.07;;
51754;SDS011;37829;50.370;30.428;2022-11-15T02:43:53;20.25;;;12.80;;
51754;SDS011;37829;50.370;30.428;2022-11-15T02:44:57;18.05;;;11.63;;
51754;SDS011;37829;50.370;30.428;2022-11-15T02:46:01;19.30;;;12.30;;
51754;SDS011;37829;50.370;30.428;2022-11-15T02:47:04;19.10;;;12.30;;
51754;SDS011;37829;50.370;30.428;2022-11-15T02:48:15;20.33;;;13.02;;
51754;SDS011;37829;50.370;30.428;2022-11-15T02:49:17;21.52;;;12.93;;
51754;SDS011;37829;50.370;30.428;2022-11-15T02:50:20;20.95;;;11.50;;
51754;SDS011;37829;50.370;30.428;2022-11-15T02:51:21;19.08;;;12.68;;
51754;SDS011;37829;50.370;30.428;2022-11-15T02:52:23;23.45;;;13.20;;
51754;SDS011;37829;50.370;30.428;2022-11-15T02:53:25;19.88;;;12.85;;
51754;SDS011;37829;50.370;30.428;2022-11-15T02:54:30;18.85;;;12.75;;
51754;SDS011;37829;50.370;30.428;2022-11-15T02:55:33;18.60;;;12.43;;
51754;SDS011;37829;50.370;30.428;2022-11-15T02:56:34;21.60;;;13.02;;
51754;SDS011;37829;50.370;30.428;2022-11-15T02:57:39;17.63;;;12.07;;
51754;SDS011;37829;50.370;30.428;2022-11-15T02:58:53;19.00;;;13.13;;
51754;SDS011;37829;50.370;30.428;2022-11-15T03:00:02;18.27;;;12.10;;
51754;SDS011;37829;50.370;30.428;2022-11-15T03:01:06;20.85;;;12.50;;
51754;SDS011;37829;50.370;30.428;2022-11-15T03:02:16;18.63;;;11.93;;
51754;SDS011;37829;50.370;30.428;2022-11-15T03:03:23;18.75;;;12.18;;
51754;SDS011;37829;50.370;30.428;2022-11-15T03:04:33;16.30;;;12.05;;
51754;SDS011;37829;50.370;30.428;2022-11-15T03:05:37;19.42;;;13.65;;
51754;SDS011;37829;50.370;30.428;2022-11-15T03:06:41;20.10;;;13.65;;
51754;SDS011;37829;50.370;30.428;2022-11-15T03:07:43;20.52;;;12.05;;
51754;SDS011;37829;50.370;30.428;2022-11-15T03:08:50;20.17;;;13.35;;
51754;SDS011;37829;50.370;30.428;2022-11-15T03:09:54;21.60;;;13.73;;
51754;SDS011;37829;50.370;30.428;2022-11-15T03:11:00;19.85;;;13.38;;
51754;SDS011;37829;50.370;30.428;2022-11-15T03:12:04;21.05;;;12.43;;
51754;SDS011;37829;50.370;30.428;2022-11-15T03:13:09;18.70;;;12.30;;
51754;SDS011;37829;50.370;30.428;2022-11-15T03:14:18;19.67;;;13.20;;
51754;SDS011;37829;50.370;30.428;2022-11-15T03:15:21;20.25;;;13.60;;
51754;SDS011;37829;50.370;30.428;2022-11-15T03:16:26;19.95;;;13.38;;
51754;SDS011;37829;50.370;30.428;2022-11-15T03:17:30;21.95;;;13.60;;
51754;SDS011;37829;50.370;30.428;2022-11-15T03:19:33;21.75;;;14.25;;
51754;SDS011;37829;50.370;30.428;2022-11-15T03:20:36;23.42;;;13.30;;
51754;SDS011;37829;50.370;30.428;2022-11-15T03:21:37;21.45;;;13.57;;
51754;SDS011;37829;50.370;30.428;2022-11-15T03:22:42;19.80;;;12.98;;
51754;SDS011;37829;50.370;30.428;2022-11-15T03:23:44;20.45;;;13.75;;
51754;SDS011;37829;50.370;30.428;2022-11-15T03:24:46;20.40;;;13.57;;
51754;SDS011;37829;50.370;30.428;2022-11-15T03:25:48;19.48;;;13.27;;
51754;SDS011;37829;50.370;30.428;2022-11-15T03:26:51;20.35;;;14.07;;
51754;SDS011;37829;50.370;30.428;2022-11-15T03:27:55;21.48;;;14.27;;
51754;SDS011;37829;50.370;30.428;2022-11-15T03:28:58;20.60;;;13.57;;
51754;SDS011;37829;50.370;30.428;2022-11-15T03:30:03;18.75;;;12.82;;
51754;SDS011;37829;50.370;30.428;2022-11-15T03:31:04;22.88;;;13.60;;
51754;SDS011;37829;50.370;30.428;2022-11-15T03:32:28;21.17;;;14.00;;
51754;SDS011;37829;50.370;30.428;2022-11-15T03:33:30;21.27;;;13.82;;
51754;SDS011;37829;50.370;30.428;2022-11-15T03:34:34;18.45;;;13.50;;
51754;SDS011;37829;50.370;30.428;2022-11-15T03:35:37;20.67;;;13.73;;
51754;SDS011;37829;50.370;30.428;2022-11-15T03:36:39;23.77;;;14.40;;
51754;SDS011;37829;50.370;30.428;2022-11-15T03:37:42;25.90;;;14.65;;
51754;SDS011;37829;50.370;30.428;2022-11-15T03:38:44;23.08;;;13.45;;
51754;SDS011;37829;50.370;30.428;2022-11-15T03:39:46;23.15;;;15.13;;
51754;SDS011;37829;50.370;30.428;2022-11-15T03:40:48;23.65;;;15.10;;
51754;SDS011;37829;50.370;30.428;2022-11-15T03:41:54;23.60;;;15.82;;
51754;SDS011;37829;50.370;30.428;2022-11-15T03:42:59;24.42;;;15.40;;
51754;SDS011;37829;50.370;30.428;2022-11-15T03:44:03;21.70;;;14.73;;
51754;SDS011;37829;50.370;30.428;2022-11-15T03:45:08;26.35;;;14.77;;
51754;SDS011;37829;50.370;30.428;2022-11-15T03:46:12;22.65;;;14.68;;
51754;SDS011;37829;50.370;30.428;2022-11-15T03:47:16;20.98;;;14.93;;
51754;SDS011;37829;50.370;30.428;2022-11-15T03:48:20;21.17;;;14.35;;
51754;SDS011;37829;50.370;30.428;2022-11-15T03:49:22;30.25;;;17.10;;
51754;SDS011;37829;50.370;30.428;2022-11-15T03:50:25;24.13;;;15.13;;
51754;SDS011;37829;50.370;30.428;2022-11-15T03:51:26;27.85;;;16.52;;
51754;SDS011;37829;50.370;30.428;2022-11-15T03:52:30;28.02;;;16.58;;
51754;SDS011;37829;50.370;30.428;2022-11-15T03:53:32;27.48;;;16.35;;
51754;SDS011;37829;50.370;30.428;2022-11-15T03:54:33;27.00;;;17.13;;
51754;SDS011;37829;50.370;30.428;2022-11-15T03:55:35;29.52;;;15.07;;
51754;SDS011;37829;50.370;30.428;2022-11-15T03:56:36;27.37;;;16.67;;
51754;SDS011;37829;50.370;30.428;2022-11-15T03:57:37;31.50;;;17.73;;
51754;SDS011;37829;50.370;30.428;2022-11-15T03:58:38;31.95;;;16.73;;
51754;SDS011;37829;50.370;30.428;2022-11-15T03:59:39;27.92;;;15.93;;
51754;SDS011;37829;50.370;30.428;2022-11-15T04:00:40;32.57;;;17.73;;
51754;SDS011;37829;50.370;30.428;2022-11-15T04:01:42;27.05;;;16.38;;
51754;SDS011;37829;50.370;30.428;2022-11-15T04:02:43;30.42;;;16.33;;
51754;SDS011;37829;50.370;30.428;2022-11-15T04:03:45;25.67;;;15.70;;
51754;SDS011;37829;50.370;30.428;2022-11-15T04:04:46;31.08;;;16.15;;
51754;SDS011;37829;50.370;30.428;2022-11-15T04:05:47;32.50;;;17.95;;
51754;SDS011;37829;50.370;30.428;2022-11-15T04:06:48;27.75;;;16.38;;
51754;SDS011;37829;50.370;30.428;2022-11-15T04:07:49;26.05;;;15.38;;
51754;SDS011;37829;50.370;30.428;2022-11-15T04:08:50;30.13;;;17.30;;
51754;SDS011;37829;50.370;30.428;2022-11-15T04:09:52;33.15;;;17.20;;
51754;SDS011;37829;50.370;30.428;2022-11-15T04:11:04;29.70;;;17.27;;
51754;SDS011;37829;50.370;30.428;2022-11-15T04:12:05;29.35;;;18.27;;
51754;SDS011;37829;50.370;30.428;2022-11-15T04:13:06;33.13;;;17.73;;
51754;SDS011;37829;50.370;30.428;2022-11-15T04:14:08;30.63;;;17.05;;
51754;SDS011;37829;50.370;30.428;2022-11-15T04:15:09;29.95;;;17.42;;
51754;SDS011;37829;50.370;30.428;2022-11-15T04:16:11;28.70;;;16.70;;
51754;SDS011;37829;50.370;30.428;2022-11-15T04:17:12;31.10;;;18.60;;
51754;SDS011;37829;50.370;30.428;2022-11-15T04:18:14;30.73;;;18.40;;
51754;SDS011;37829;50.370;30.428;2022-11-15T04:19:15;31.90;;;18.55;;
51754;SDS011;37829;50.370;30.428;2022-11-15T04:20:34;30.50;;;18.27;;
51754;SDS011;37829;50.370;30.428;2022-11-15T04:21:54;28.33;;;16.73;;
51754;SDS011;37829;50.370;30.428;2022-11-15T04:23:14;30.58;;;18.17;;
51754;SDS011;37829;50.370;30.428;2022-11-15T04:24:34;32.50;;;18.25;;
51754;SDS011;37829;50.370;30.428;2022-11-15T04:25:35;29.20;;;17.98;;
51754;SDS011;37829;50.370;30.428;2022-11-15T04:26:36;31.05;;;18.08;;
51754;SDS011;37829;50.370;30.428;2022-11-15T04:27:37;35.22;;;16.85;;
51754;SDS011;37829;50.370;30.428;2022-11-15T04:28:38;27.55;;;16.25;;
51754;SDS011;37829;50.370;30.428;2022-11-15T04:30:00;30.92;;;17.38;;
51754;SDS011;37829;50.370;30.428;2022-11-15T04:31:01;28.02;;;16.40;;
51754;SDS011;37829;50.370;30.428;2022-11-15T04:32:02;31.38;;;17.58;;
51754;SDS011;37829;50.370;30.428;2022-11-15T04:33:03;30.87;;;16.67;;
51754;SDS011;37829;50.370;30.428;2022-11-15T04:34:04;29.40;;;17.77;;
51754;SDS011;37829;50.370;30.428;2022-11-15T04:35:06;32.70;;;18.77;;
51754;SDS011;37829;50.370;30.428;2022-11-15T04:36:08;29.25;;;18.35;;
51754;SDS011;37829;50.370;30.428;2022-11-15T04:37:27;28.95;;;17.35;;
51754;SDS011;37829;50.370;30.428;2022-11-15T04:38:28;31.58;;;18.23;;
51754;SDS011;37829;50.370;30.428;2022-11-15T04:39:29;30.20;;;18.10;;
51754;SDS011;37829;50.370;30.428;2022-11-15T04:40:30;30.52;;;17.70;;
51754;SDS011;37829;50.370;30.428;2022-11-15T04:41:31;30.45;;;17.77;;
51754;SDS011;37829;50.370;30.428;2022-11-15T04:42:32;29.52;;;17.15;;
51754;SDS011;37829;50.370;30.428;2022-11-15T04:43:33;31.40;;;18.33;;
51754;SDS011;37829;50.370;30.428;2022-11-15T04:44:35;28.15;;;17.67;;
51754;SDS011;37829;50.370;30.428;2022-11-15T04:45:36;33.40;;;18.17;;
51754;SDS011;37829;50.370;30.428;2022-11-15T04:46:37;32.50;;;18.13;;
51754;SDS011;37829;50.370;30.428;2022-11-15T04:47:38;29.00;;;16.57;;
51754;SDS011;37829;50.370;30.428;2022-11-15T04:48:39;32.60;;;16.92;;
51754;SDS011;37829;50.370;30.428;2022-11-15T04:49:40;35.38;;;18.80;;
51754;SDS011;37829;50.370;30.428;2022-11-15T04:50:42;30.13;;;17.83;;
51754;SDS011;37829;50.370;30.428;2022-11-15T04:52:49;34.85;;;17.27;;
51754;SDS011;37829;50.370;30.428;2022-11-15T04:53:51;33.55;;;18.35;;
51754;SDS011;37829;50.370;30.428;2022-11-15T04:54:51;32.50;;;18.93;;
51754;SDS011;37829;50.370;30.428;2022-11-15T04:55:53;31.70;;;18.17;;
51754;SDS011;37829;50.370;30.428;2022-11-15T04:56:54;38.55;;;19.77;;
51754;SDS011;37829;50.370;30.428;2022-11-15T04:57:58;36.97;;;19.70;;
51754;SDS011;37829;50.370;30.428;2022-11-15T04:59:00;31.60;;;18.63;;
51754;SDS011;37829;50.370;30.428;2022-11-15T05:00:01;31.97;;;18.07;;
51754;SDS011;37829;50.370;30.428;2022-11-15T05:01:06;32.25;;;18.10;;
51754;SDS011;37829;50.370;30.428;2022-11-15T05:02:07;31.10;;;17.40;;
51754;SDS011;37829;50.370;30.428;2022-11-15T05:03:08;37.33;;;19.67;;
51754;SDS011;37829;50.370;30.428;2022-11-15T05:04:28;33.20;;;17.85;;
51754;SDS011;37829;50.370;30.428;2022-11-15T05:05:29;34.73;;;18.73;;
51754;SDS011;37829;50.370;30.428;2022-11-15T05:06:30;40.40;;;20.00;;
51754;SDS011;37829;50.370;30.428;2022-11-15T05:08:32;31.98;;;17.52;;
51754;SDS011;37829;50.370;30.428;2022-11-15T05:09:34;29.92;;;15.98;;
51754;SDS011;37829;50.370;30.428;2022-11-15T05:10:34;40.37;;;19.77;;
51754;SDS011;37829;50.370;30.428;2022-11-15T05:11:36;35.15;;;19.17;;
51754;SDS011;37829;50.370;30.428;2022-11-15T05:12:37;35.80;;;19.70;;
51754;SDS011;37829;50.370;30.428;2022-11-15T05:13:38;34.75;;;18.92;;
51754;SDS011;37829;50.370;30.428;2022-11-15T05:14:39;35.35;;;18.80;;
51754;SDS011;37829;50.370;30.428;2022-11-15T05:15:40;37.00;;;17.73;;
51754;SDS011;37829;50.370;30.428;2022-11-15T05:16:41;41.17;;;19.73;;
51754;SDS011;37829;50.370;30.428;2022-11-15T05:17:42;41.30;;;20.00;;
51754;SDS011;37829;50.370;30.428;2022-11-15T05:18:43;38.80;;;20.58;;
51754;SDS011;37829;50.370;30.428;2022-11-15T05:19:44;35.88;;;19.58;;
51754;SDS011;37829;50.370;30.428;2022-11-15T05:20:45;35.97;;;17.93;;
51754;SDS011;37829;50.370;30.428;2022-11-15T05:21:47;44.22;;;20.25;;
51754;SDS011;37829;50.370;30.428;2022-11-15T05:22:48;36.58;;;19.20;;
51754;SDS011;37829;50.370;30.428;2022-11-15T05:23:49;39.03;;;20.25;;
51754;SDS011;37829;50.370;30.428;2022-11-15T05:24:50;37.33;;;19.17;;
51754;SDS011;37829;50.370;30.428;2022-11-15T05:25:51;38.85;;;19.17;;
51754;SDS011;37829;50.370;30.428;2022-11-15T05:26:52;37.08;;;20.38;;
51754;SDS011;37829;50.370;30.428;2022-11-15T05:27:53;34.08;;;18.83;;
51754;SDS011;37829;50.370;30.428;2022-11-15T05:28:55;37.85;;;20.17;;
51754;SDS011;37829;50.370;30.428;2022-11-15T05:29:56;39.25;;;19.15;;
51754;SDS011;37829;50.370;30.428;2022-11-15T05:31:00;40.38;;;19.48;;
51754;SDS011;37829;50.370;30.428;2022-11-15T05:32:02;37.35;;;18.77;;
51754;SDS011;37829;50.370;30.428;2022-11-15T05:33:04;38.97;;;19.65;;
51754;SDS011;37829;50.370;30.428;2022-11-15T05:34:05;43.25;;;20.30;;
51754;SDS011;37829;50.370;30.428;2022-11-15T05:35:08;40.22;;;19.42;;
51754;SDS011;37829;50.370;30.428;2022-11-15T05:36:12;38.50;;;18.42;;
51754;SDS011;37829;50.370;30.428;2022-11-15T05:37:16;36.22;;;18.65;;
51754;SDS011;37829;50.370;30.428;2022-11-15T05:38:17;37.03;;;18.40;;
51754;SDS011;37829;50.370;30.428;2022-11-15T05:39:18;35.57;;;19.53;;
51754;SDS011;37829;50.370;30.428;2022-11-15T05:40:19;34.95;;;19.88;;
51754;SDS011;37829;50.370;30.428;2022-11-15T05:41:20;34.47;;;17.92;;
51754;SDS011;37829;50.370;30.428;2022-11-15T05:42:25;39.47;;;19.33;;
51754;SDS011;37829;50.370;30.428;2022-11-15T05:43:27;36.55;;;18.45;;
51754;SDS011;37829;50.370;30.428;2022-11-15T05:44:30;37.20;;;20.10;;
51754;SDS011;37829;50.370;30.428;2022-11-15T05:45:31;37.38;;;19.58;;
51754;SDS011;37829;50.370;30.428;2022-11-15T05:46:33;36.92;;;19.73;;
51754;SDS011;37829;50.370;30.428;2022-11-15T05:47:35;36.30;;;18.95;;
51754;SDS011;37829;50.370;30.428;2022-11-15T05:49:38;34.85;;;17.67;;
51754;SDS011;37829;50.370;30.428;2022-11-15T05:50:41;35.47;;;18.83;;
51754;SDS011;37829;50.370;30.428;2022-11-15T05:51:43;37.00;;;18.52;;
51754;SDS011;37829;50.370;30.428;2022-11-15T05:52:46;40.70;;;19.98;;
51754;SDS011;37829;50.370;30.428;2022-11-15T05:54:48;39.85;;;17.80;;
51754;SDS011;37829;50.370;30.428;2022-11-15T05:55:49;43.60;;;20.48;;
51754;SDS011;37829;50.370;30.428;2022-11-15T05:56:51;35.90;;;20.00;;
51754;SDS011;37829;50.370;30.428;2022-11-15T05:57:52;40.13;;;20.75;;
51754;SDS011;37829;50.370;30.428;2022-11-15T05:58:53;37.13;;;20.20;;
51754;SDS011;37829;50.370;30.428;2022-11-15T06:00:00;38.63;;;20.55;;
51754;SDS011;37829;50.370;30.428;2022-11-15T06:01:01;37.53;;;19.50;;
51754;SDS011;37829;50.370;30.428;2022-11-15T06:02:02;36.15;;;19.30;;
51754;SDS011;37829;50.370;30.428;2022-11-15T06:03:03;36.07;;;18.90;;
51754;SDS011;37829;50.370;30.428;2022-11-15T06:04:05;35.78;;;19.73;;
51754;SDS011;37829;50.370;30.428;2022-11-15T06:05:06;37.17;;;18.70;;
51754;SDS011;37829;50.370;30.428;2022-11-15T06:06:07;37.05;;;19.25;;
51754;SDS011;37829;50.370;30.428;2022-11-15T06:07:15;38.75;;;20.48;;
51754;SDS011;37829;50.370;30.428;2022-11-15T06:08:17;36.72;;;19.67;;
51754;SDS011;37829;50.370;30.428;2022-11-15T06:09:18;36.40;;;19.67;;
51754;SDS011;37829;50.370;30.428;2022-11-15T06:10:20;43.40;;;19.98;;
51754;SDS011;37829;50.370;30.428;2022-11-15T06:11:21;31.23;;;17.17;;
51754;SDS011;37829;50.370;30.428;2022-11-15T06:12:22;40.83;;;19.90;;
51754;SDS011;37829;50.370;30.428;2022-11-15T06:13:23;38.63;;;19.45;;
51754;SDS011;37829;50.370;30.428;2022-11-15T06:14:24;38.25;;;20.05;;
51754;SDS011;37829;50.370;30.428;2022-11-15T06:15:25;36.53;;;17.90;;